createdAt,value
2022-08-31T00:03:38.262Z,2.83
2022-08-31T00:07:00.079Z,2.95
2022-08-31T00:10:31.942Z,3.03
2022-08-31T00:14:01.062Z,3.50
2022-08-31T00:17:22.838Z,3.30
2022-08-31T00:20:45.455Z,3.88
2022-08-31T00:24:07.877Z,2.97
2022-08-31T00:27:29.573Z,3.22
2022-08-31T00:30:51.367Z,3.30
2022-08-31T00:34:13.109Z,3.25
2022-08-31T00:37:35.057Z,3.22
2022-08-31T00:40:56.988Z,3.30
2022-08-31T00:44:18.781Z,2.83
2022-08-31T00:47:40.697Z,3.13
2022-08-31T00:51:02.604Z,2.78
2022-08-31T00:54:33.279Z,2.88
2022-08-31T00:57:57.206Z,3.13
2022-08-31T01:01:20.146Z,2.90
2022-08-31T01:04:41.979Z,2.80
2022-08-31T01:08:05.352Z,2.75
2022-08-31T01:11:27.958Z,3.00
2022-08-31T01:14:50.058Z,2.78
2022-08-31T01:18:12.150Z,2.88
2022-08-31T01:21:54.586Z,3.20
2022-08-31T01:25:16.766Z,2.72
2022-08-31T01:28:38.539Z,3.30
2022-08-31T01:32:01.182Z,3.20
2022-08-31T01:35:22.958Z,2.78
2022-08-31T01:38:45.675Z,2.58
2022-08-31T01:42:07.673Z,2.70
2022-08-31T01:45:29.645Z,3.15
2022-08-31T01:48:52.363Z,3.08
2022-08-31T01:52:14.110Z,3.55
2022-08-31T01:55:36.583Z,2.92
2022-08-31T01:58:58.973Z,2.85
2022-08-31T02:02:46.655Z,2.92
2022-08-31T02:06:10.611Z,2.90
2022-08-31T02:09:32.477Z,2.83
2022-08-31T02:12:54.234Z,3.05
2022-08-31T02:16:24.449Z,3.47
2022-08-31T02:19:46.312Z,3.35
2022-08-31T02:23:09.339Z,2.60
2022-08-31T02:26:31.169Z,3.25
2022-08-31T02:29:53.038Z,2.67
2022-08-31T02:33:15.369Z,2.60
2022-08-31T02:36:37.409Z,3.05
2022-08-31T02:40:01.119Z,3.08
2022-08-31T02:43:25.152Z,3.20
2022-08-31T02:46:49.181Z,2.92
2022-08-31T02:50:28.330Z,3.03
2022-08-31T02:53:51.204Z,2.97
2022-08-31T02:57:12.962Z,3.03
2022-08-31T03:00:34.885Z,2.47
2022-08-31T03:03:57.498Z,2.90
2022-08-31T03:07:19.280Z,3.25
2022-08-31T03:10:41.535Z,3.05
2022-08-31T03:14:03.328Z,2.78
2022-08-31T03:17:25.478Z,2.85
2022-08-31T03:20:47.317Z,2.63
2022-08-31T03:24:09.358Z,2.65
2022-08-31T03:27:32.234Z,2.97
2022-08-31T03:30:54.943Z,2.53
2022-08-31T03:34:16.855Z,2.92
2022-08-31T03:37:38.767Z,2.70
2022-08-31T03:41:02.450Z,2.90
2022-08-31T03:44:24.995Z,3.10
2022-08-31T03:47:48.204Z,2.80
2022-08-31T03:51:10.640Z,3.28
2022-08-31T03:54:33.269Z,2.78
2022-08-31T03:57:55.973Z,3.00
2022-08-31T04:01:18.341Z,3.20
2022-08-31T04:05:06.988Z,2.78
2022-08-31T04:08:48.495Z,3.13
2022-08-31T04:12:48.535Z,2.80
2022-08-31T04:16:28.225Z,3.10
2022-08-31T04:20:02.217Z,2.50
2022-08-31T04:23:39.278Z,2.80
2022-08-31T04:27:02.296Z,2.95
2022-08-31T04:30:24.611Z,2.70
2022-08-31T04:33:47.190Z,3.10
2022-08-31T04:37:10.240Z,2.95
2022-08-31T04:40:32.128Z,2.85
2022-08-31T04:43:57.440Z,2.85
2022-08-31T04:47:20.352Z,2.97
2022-08-31T04:50:43.040Z,2.60
2022-08-31T04:54:08.204Z,2.90
2022-08-31T04:57:31.350Z,2.97
2022-08-31T05:00:53.384Z,3.08
2022-08-31T05:04:17.699Z,3.25
2022-08-31T05:07:39.454Z,3.17
2022-08-31T05:11:12.347Z,3.00
2022-08-31T05:14:35.702Z,3.30
2022-08-31T05:18:05.257Z,3.60
2022-08-31T05:21:37.025Z,3.75
2022-08-31T05:24:58.964Z,3.10
2022-08-31T05:28:23.326Z,3.50
2022-08-31T05:31:50.352Z,3.40
2022-08-31T05:35:15.077Z,3.33
2022-08-31T05:38:39.752Z,3.17
2022-08-31T05:42:02.228Z,3.78
2022-08-31T05:45:24.141Z,3.58
2022-08-31T05:48:49.188Z,3.55
2022-08-31T05:52:12.346Z,3.47
2022-08-31T05:55:34.651Z,4.00
2022-08-31T05:58:57.593Z,4.03
2022-08-31T06:02:21.424Z,4.13
2022-08-31T06:05:43.535Z,3.55
2022-08-31T06:09:07.786Z,4.00
2022-08-31T06:12:32.074Z,3.70
2022-08-31T06:15:54.650Z,3.58
2022-08-31T06:19:16.840Z,3.90
2022-08-31T06:22:46.472Z,3.83
2022-08-31T06:26:16.055Z,4.25
2022-08-31T06:29:38.391Z,4.35
2022-08-31T06:33:02.245Z,4.30
2022-08-31T06:36:40.954Z,4.18
2022-08-31T06:40:15.814Z,4.32
2022-08-31T06:44:02.016Z,4.57
2022-08-31T06:47:34.823Z,4.28
2022-08-31T06:50:58.234Z,4.85
2022-08-31T06:54:29.340Z,4.88
2022-08-31T06:58:15.218Z,5.03
2022-08-31T07:01:55.972Z,6.30
2022-08-31T07:05:38.356Z,5.05
2022-08-31T07:09:03.815Z,5.68
2022-08-31T07:12:25.933Z,4.85
2022-08-31T07:15:47.871Z,5.68
2022-08-31T07:19:12.596Z,5.15
2022-08-31T07:22:34.571Z,5.10
2022-08-31T07:26:18.326Z,4.18
2022-08-31T07:29:41.404Z,4.97
2022-08-31T07:33:07.010Z,5.40
2022-08-31T07:36:31.269Z,5.55
2022-08-31T07:40:16.217Z,5.22
2022-08-31T07:43:38.006Z,5.28
2022-08-31T07:47:00.320Z,5.15
2022-08-31T07:50:23.415Z,5.70
2022-08-31T07:54:08.862Z,6.03
2022-08-31T07:57:54.929Z,6.10
2022-08-31T08:01:17.623Z,6.03
2022-08-31T08:04:44.188Z,5.82
2022-08-31T08:08:32.096Z,5.75
2022-08-31T08:12:25.093Z,6.10
2022-08-31T08:15:51.936Z,6.38
2022-08-31T08:19:21.723Z,6.55
2022-08-31T08:22:55.279Z,6.45
2022-08-31T08:26:26.558Z,6.40
2022-08-31T08:29:57.248Z,6.03
2022-08-31T08:33:25.095Z,6.53
2022-08-31T08:36:48.540Z,6.78
2022-08-31T08:40:26.625Z,6.53
2022-08-31T08:43:57.389Z,6.75
2022-08-31T08:47:25.906Z,6.70
2022-08-31T08:51:01.949Z,6.60
2022-08-31T08:54:40.987Z,6.43
2022-08-31T08:58:10.342Z,7.05
2022-08-31T09:01:37.398Z,6.72
2022-08-31T09:05:21.684Z,7.35
2022-08-31T09:09:29.047Z,6.97
2022-08-31T09:13:11.590Z,6.97
2022-08-31T09:16:49.301Z,6.68
2022-08-31T09:20:13.425Z,5.70
2022-08-31T09:23:41.080Z,6.57
2022-08-31T09:27:20.853Z,6.15
2022-08-31T09:30:45.642Z,7.78
2022-08-31T09:34:28.376Z,7.40
2022-08-31T09:38:02.775Z,7.25
2022-08-31T09:41:36.392Z,7.55
2022-08-31T09:45:01.943Z,7.63
2022-08-31T09:48:45.683Z,8.48
2022-08-31T09:52:21.697Z,8.40
2022-08-31T09:55:43.934Z,8.30
2022-08-31T09:59:06.030Z,7.50
2022-08-31T10:02:37.955Z,7.97
2022-08-31T10:06:01.336Z,8.38
2022-08-31T10:09:46.904Z,7.88
2022-08-31T10:13:21.990Z,8.18
2022-08-31T10:16:49.480Z,8.38
2022-08-31T10:20:24.451Z,8.48
2022-08-31T10:23:59.387Z,8.63
2022-08-31T10:27:35.295Z,8.80
2022-08-31T10:31:20.965Z,7.78
2022-08-31T10:35:01.682Z,8.15
2022-08-31T10:38:43.134Z,7.97
2022-08-31T10:42:10.535Z,7.72
2022-08-31T10:45:37.748Z,8.07
2022-08-31T10:49:01.808Z,7.65
2022-08-31T10:52:32.270Z,6.93
2022-08-31T10:56:14.169Z,7.47
2022-08-31T10:59:47.499Z,7.97
2022-08-31T11:03:19.186Z,7.38
2022-08-31T11:06:56.526Z,8.02
2022-08-31T11:10:19.821Z,6.97
2022-08-31T11:14:00.291Z,7.57
2022-08-31T11:17:47.273Z,7.97
2022-08-31T11:21:42.827Z,6.30
2022-08-31T11:25:24.849Z,5.47
2022-08-31T11:28:50.771Z,5.43
2022-08-31T11:32:26.164Z,4.72
2022-08-31T11:36:08.659Z,5.25
2022-08-31T11:39:30.968Z,5.78
2022-08-31T11:42:53.484Z,5.82
2022-08-31T11:46:26.965Z,5.82
2022-08-31T11:49:55.744Z,6.63
2022-08-31T11:53:34.818Z,6.35
2022-08-31T11:56:57.128Z,8.00
2022-08-31T12:00:20.457Z,6.25
2022-08-31T12:04:03.461Z,6.03
2022-08-31T12:07:34.471Z,5.50
2022-08-31T12:11:02.111Z,5.68
2022-08-31T12:14:29.517Z,5.43
2022-08-31T12:18:30.007Z,4.70
2022-08-31T12:22:18.323Z,5.20
2022-08-31T12:25:49.370Z,4.38
2022-08-31T12:29:31.927Z,3.92
2022-08-31T12:33:14.903Z,4.82
2022-08-31T12:36:37.147Z,4.35
2022-08-31T12:40:12.006Z,4.80
2022-08-31T12:43:45.943Z,4.53
2022-08-31T12:47:34.236Z,4.00
2022-08-31T12:50:58.731Z,5.07
2022-08-31T12:54:49.679Z,4.75
2022-08-31T12:58:56.664Z,4.30
2022-08-31T13:02:20.428Z,4.20
2022-08-31T13:05:46.449Z,3.67
2022-08-31T13:09:22.837Z,4.00
2022-08-31T13:13:20.330Z,3.63
2022-08-31T13:16:52.628Z,3.60
2022-08-31T13:20:19.704Z,3.20
2022-08-31T13:23:46.471Z,2.92
2022-08-31T13:27:20.301Z,2.80
2022-08-31T13:30:55.062Z,2.60
2022-08-31T13:34:19.088Z,2.45
2022-08-31T13:38:00.159Z,2.72
2022-08-31T13:41:37.334Z,2.40
2022-08-31T13:45:09.056Z,2.95
2022-08-31T13:48:39.203Z,2.33
2022-08-31T13:52:30.009Z,2.40
2022-08-31T13:55:52.281Z,2.20
2022-08-31T13:59:26.592Z,2.50
2022-08-31T14:02:48.570Z,1.90
2022-08-31T14:06:23.788Z,1.67
2022-08-31T14:09:47.893Z,1.48
2022-08-31T14:13:21.271Z,1.60
2022-08-31T14:16:51.993Z,1.70
2022-08-31T14:20:26.297Z,1.90
2022-08-31T14:24:00.961Z,1.30
2022-08-31T14:27:24.025Z,1.50
2022-08-31T14:30:45.919Z,1.23
2022-08-31T14:34:15.016Z,1.70
2022-08-31T14:37:37.899Z,1.40
2022-08-31T14:40:59.691Z,1.98
2022-08-31T14:44:29.762Z,1.42
2022-08-31T14:47:52.329Z,1.70
2022-08-31T14:51:14.396Z,1.50
2022-08-31T14:54:37.595Z,1.50
2022-08-31T14:58:11.724Z,1.52
2022-08-31T15:01:35.491Z,1.65
2022-08-31T15:05:00.389Z,1.25
2022-08-31T15:08:23.252Z,1.30
2022-08-31T15:12:01.129Z,1.30
2022-08-31T15:15:23.301Z,1.98
2022-08-31T15:18:45.367Z,1.65
2022-08-31T15:22:09.309Z,1.63
2022-08-31T15:25:31.105Z,1.63
2022-08-31T15:28:53.288Z,1.50
2022-08-31T15:32:18.607Z,1.95
2022-08-31T15:35:41.913Z,1.83
2022-08-31T15:39:04.176Z,1.63
2022-08-31T15:42:26.097Z,1.50
2022-08-31T15:45:47.990Z,1.42
2022-08-31T15:49:10.544Z,1.48
2022-08-31T15:52:32.332Z,1.50
2022-08-31T15:55:54.149Z,2.00
2022-08-31T15:59:16.019Z,1.50
2022-08-31T16:02:37.774Z,1.55
2022-08-31T16:06:00.774Z,1.52
2022-08-31T16:09:22.804Z,1.40
2022-08-31T16:12:44.814Z,1.60
2022-08-31T16:16:08.794Z,1.73
2022-08-31T16:19:35.527Z,1.50
2022-08-31T16:22:58.580Z,1.80
2022-08-31T16:26:23.305Z,1.42
2022-08-31T16:29:46.844Z,1.80
2022-08-31T16:33:08.578Z,1.30
2022-08-31T16:36:30.480Z,1.58
2022-08-31T16:39:52.356Z,1.90
2022-08-31T16:43:14.664Z,1.70
2022-08-31T16:46:40.941Z,2.33
2022-08-31T16:50:08.561Z,1.98
2022-08-31T16:53:31.346Z,2.10
2022-08-31T16:56:54.984Z,2.20
2022-08-31T17:00:17.157Z,2.13
2022-08-31T17:03:52.780Z,2.20
2022-08-31T17:07:16.605Z,2.25
2022-08-31T17:10:38.384Z,2.30
2022-08-31T17:14:03.611Z,2.35
2022-08-31T17:17:26.766Z,1.90
2022-08-31T17:20:53.576Z,2.83
2022-08-31T17:24:25.264Z,1.40
2022-08-31T17:27:51.419Z,1.73
2022-08-31T17:31:14.210Z,1.48
2022-08-31T17:34:37.699Z,1.60
2022-08-31T17:37:59.784Z,1.70
2022-08-31T17:41:22.256Z,1.88
2022-08-31T17:44:47.913Z,1.80
2022-08-31T17:48:09.614Z,1.70
2022-08-31T17:51:33.408Z,1.60
2022-08-31T17:54:55.504Z,2.38
2022-08-31T17:58:17.522Z,2.17
2022-08-31T18:01:39.834Z,1.80
2022-08-31T18:05:02.203Z,1.70
2022-08-31T18:08:26.384Z,1.88
2022-08-31T18:11:49.614Z,1.73
2022-08-31T18:15:12.630Z,4.18
2022-08-31T18:18:35.287Z,1.85
2022-08-31T18:21:57.090Z,1.75
2022-08-31T18:25:19.191Z,1.60
2022-08-31T18:28:41.261Z,2.28
2022-08-31T18:32:05.383Z,2.15
2022-08-31T18:35:30.002Z,2.03
2022-08-31T18:38:57.395Z,8.77
2022-08-31T18:42:38.882Z,5.13
2022-08-31T18:46:00.919Z,2.78
2022-08-31T18:49:23.395Z,2.53
2022-08-31T18:52:48.423Z,2.67
2022-08-31T18:56:11.479Z,2.70
2022-08-31T18:59:33.404Z,2.55
2022-08-31T19:02:55.160Z,2.55
2022-08-31T19:06:21.182Z,2.20
2022-08-31T19:09:44.538Z,2.42
2022-08-31T19:13:07.823Z,2.50
2022-08-31T19:16:30.004Z,2.25
2022-08-31T19:19:54.053Z,2.47
2022-08-31T19:23:20.099Z,2.60
2022-08-31T19:26:44.979Z,2.25
2022-08-31T19:30:08.173Z,2.92
2022-08-31T19:33:33.902Z,3.00
2022-08-31T19:36:57.335Z,3.10
2022-08-31T19:40:19.344Z,2.88
2022-08-31T19:43:49.046Z,3.47
2022-08-31T19:47:25.065Z,3.63
2022-08-31T19:50:46.977Z,3.13
2022-08-31T19:54:12.167Z,3.55
2022-08-31T19:57:34.891Z,3.40
2022-08-31T20:01:01.052Z,3.40
2022-08-31T20:04:26.871Z,3.70
2022-08-31T20:07:48.744Z,3.05
2022-08-31T20:11:18.040Z,3.40
2022-08-31T20:14:44.570Z,3.50
2022-08-31T20:18:07.527Z,3.88
2022-08-31T20:21:32.564Z,3.72
2022-08-31T20:24:55.520Z,3.97
2022-08-31T20:28:26.003Z,3.65
2022-08-31T20:31:50.993Z,4.05
2022-08-31T20:35:13.435Z,3.75
2022-08-31T20:38:35.937Z,3.75
2022-08-31T20:41:59.168Z,3.70
2022-08-31T20:45:21.871Z,3.95
2022-08-31T20:49:02.558Z,3.67
2022-08-31T20:52:27.583Z,4.10
2022-08-31T20:55:51.161Z,4.10
2022-08-31T20:59:13.182Z,4.20
2022-08-31T21:02:39.430Z,4.50
2022-08-31T21:06:03.266Z,4.22
2022-08-31T21:09:26.267Z,4.25
2022-08-31T21:12:53.214Z,4.63
2022-08-31T21:16:21.562Z,4.10
2022-08-31T21:19:45.647Z,4.35
2022-08-31T21:23:10.527Z,4.45
2022-08-31T21:26:35.481Z,4.22
2022-08-31T21:29:59.791Z,4.43
2022-08-31T21:33:21.733Z,3.80
2022-08-31T21:36:44.892Z,4.10
2022-08-31T21:40:07.567Z,4.90
2022-08-31T21:43:29.611Z,4.28
2022-08-31T21:46:51.776Z,4.32
2022-08-31T21:50:13.664Z,3.95
2022-08-31T21:53:35.385Z,4.30
2022-08-31T21:57:02.381Z,4.03
2022-08-31T22:00:29.353Z,4.13
2022-08-31T22:03:54.911Z,4.35
2022-08-31T22:07:19.386Z,4.47
2022-08-31T22:10:44.638Z,4.20
2022-08-31T22:14:09.685Z,4.78
2022-08-31T22:17:55.802Z,4.65
2022-08-31T22:21:27.165Z,4.40
2022-08-31T22:24:49.016Z,4.38
2022-08-31T22:28:11.083Z,4.45
2022-08-31T22:31:34.499Z,4.57
2022-08-31T22:34:56.422Z,4.60
2022-08-31T22:38:19.226Z,4.30
2022-08-31T22:41:42.051Z,4.50
2022-08-31T22:45:04.070Z,4.88
2022-08-31T22:48:25.986Z,4.82
2022-08-31T22:51:48.155Z,4.90
2022-08-31T22:55:10.255Z,4.45
2022-08-31T22:58:32.426Z,4.55
2022-08-31T23:01:59.054Z,4.55
2022-08-31T23:05:21.257Z,4.80
2022-08-31T23:08:44.591Z,4.75
2022-08-31T23:12:06.563Z,4.78
2022-08-31T23:15:29.078Z,5.15
2022-08-31T23:18:53.665Z,5.03
2022-08-31T23:22:15.594Z,5.45
2022-08-31T23:25:39.484Z,5.20
2022-08-31T23:29:05.681Z,5.30
2022-08-31T23:32:29.013Z,5.38
2022-08-31T23:35:55.670Z,5.45
2022-08-31T23:39:19.279Z,6.18
2022-08-31T23:42:41.846Z,5.70
2022-08-31T23:46:03.878Z,4.88
2022-08-31T23:49:25.686Z,6.00
2022-08-31T23:52:48.578Z,5.90
2022-08-31T23:56:11.467Z,6.00
2022-08-31T23:59:34.163Z,5.78
